createdAt,value
2023-05-19T00:01:10.672Z,12.62
2023-05-19T00:03:37.679Z,12.43
2023-05-19T00:06:05.081Z,12.46
2023-05-19T00:08:31.885Z,12.57
2023-05-19T00:10:58.766Z,12.36
2023-05-19T00:13:25.782Z,12.35
2023-05-19T00:15:52.972Z,12.39
2023-05-19T00:18:22.254Z,12.38
2023-05-19T00:20:49.321Z,12.39
2023-05-19T00:23:15.969Z,12.42
2023-05-19T00:25:42.584Z,12.35
2023-05-19T00:28:09.228Z,12.47
2023-05-19T00:30:35.870Z,12.44
2023-05-19T00:33:02.556Z,12.39
2023-05-19T00:35:29.279Z,12.31
2023-05-19T00:37:55.903Z,12.04
2023-05-19T00:40:23.664Z,11.96
2023-05-19T00:42:50.320Z,12.09
2023-05-19T00:45:16.973Z,11.95
2023-05-19T00:47:43.660Z,11.69
2023-05-19T00:50:10.500Z,11.98
2023-05-19T00:52:37.141Z,11.54
2023-05-19T00:55:04.047Z,11.71
2023-05-19T00:57:30.705Z,11.90
2023-05-19T00:59:57.349Z,12.09
2023-05-19T01:02:24.095Z,12.17
2023-05-19T01:04:50.823Z,12.21
2023-05-19T01:07:17.506Z,12.19
2023-05-19T01:09:44.605Z,12.33
2023-05-19T01:12:11.256Z,12.37
2023-05-19T01:14:37.906Z,12.37
2023-05-19T01:17:08.004Z,12.38
2023-05-19T01:19:53.319Z,12.47
2023-05-19T01:22:48.735Z,12.41
2023-05-19T01:26:00.607Z,12.44
2023-05-19T01:29:11.637Z,12.19
2023-05-19T01:31:38.576Z,12.16
2023-05-19T01:34:06.785Z,12.21
2023-05-19T01:36:33.773Z,12.17
2023-05-19T01:39:02.184Z,12.17
2023-05-19T01:41:30.107Z,12.08
2023-05-19T01:43:57.042Z,12.08
2023-05-19T01:46:24.455Z,12.13
2023-05-19T01:48:52.411Z,12.00
2023-05-19T01:51:19.110Z,11.86
2023-05-19T01:53:45.800Z,11.67
2023-05-19T01:56:16.152Z,11.73
2023-05-19T01:58:47.902Z,11.70
2023-05-19T02:01:30.220Z,11.72
2023-05-19T02:04:28.107Z,11.47
2023-05-19T02:07:13.859Z,11.19
2023-05-19T02:10:01.226Z,11.14
2023-05-19T02:12:40.722Z,10.92
2023-05-19T02:15:22.090Z,10.88
2023-05-19T02:17:50.272Z,10.86
2023-05-19T02:20:17.549Z,10.68
2023-05-19T02:22:44.738Z,10.59
2023-05-19T02:25:11.503Z,10.66
2023-05-19T02:27:38.988Z,10.59
2023-05-19T02:30:06.870Z,10.43
2023-05-19T02:32:33.897Z,10.25
2023-05-19T02:35:00.598Z,10.34
2023-05-19T02:37:27.244Z,10.20
2023-05-19T02:39:54.311Z,10.29
2023-05-19T02:42:21.310Z,10.47
2023-05-19T02:44:48.243Z,10.68
2023-05-19T02:47:14.979Z,10.88
2023-05-19T02:49:41.635Z,11.11
2023-05-19T02:52:08.370Z,11.24
2023-05-19T02:54:35.112Z,11.40
2023-05-19T02:57:02.055Z,11.42
2023-05-19T02:59:28.786Z,11.47
2023-05-19T03:01:57.368Z,11.50
2023-05-19T03:04:24.031Z,11.42
2023-05-19T03:06:50.733Z,11.58
2023-05-19T03:09:17.473Z,11.53
2023-05-19T03:11:44.121Z,11.30
2023-05-19T03:14:10.762Z,11.33
2023-05-19T03:16:37.564Z,11.35
2023-05-19T03:19:04.328Z,11.44
2023-05-19T03:21:31.015Z,11.44
2023-05-19T03:23:57.666Z,11.20
2023-05-19T03:26:24.730Z,11.31
2023-05-19T03:28:51.400Z,11.09
2023-05-19T03:31:18.198Z,10.82
2023-05-19T03:33:44.887Z,10.88
2023-05-19T03:36:11.621Z,10.91
2023-05-19T03:38:38.253Z,10.83
2023-05-19T03:41:04.950Z,10.63
2023-05-19T03:43:31.594Z,10.96
2023-05-19T03:45:58.336Z,10.82
2023-05-19T03:48:25.050Z,10.83
2023-05-19T03:50:51.699Z,10.74
2023-05-19T03:53:18.384Z,10.94
2023-05-19T03:55:44.997Z,11.03
2023-05-19T03:58:11.657Z,11.14
2023-05-19T04:00:38.272Z,11.33
2023-05-19T04:03:05.009Z,11.41
2023-05-19T04:05:31.823Z,11.52
2023-05-19T04:07:58.449Z,11.61
2023-05-19T04:10:25.118Z,11.83
2023-05-19T04:12:51.763Z,11.85
2023-05-19T04:15:18.428Z,11.89
2023-05-19T04:17:45.141Z,11.91
2023-05-19T04:20:12.355Z,11.91
2023-05-19T04:22:39.002Z,11.93
2023-05-19T04:25:06.141Z,11.96
2023-05-19T04:27:32.789Z,11.91
2023-05-19T04:29:59.546Z,11.95
2023-05-19T04:32:26.256Z,12.02
2023-05-19T04:34:52.918Z,12.06
2023-05-19T04:37:19.580Z,12.09
2023-05-19T04:39:46.191Z,12.09
2023-05-19T04:42:12.839Z,12.11
2023-05-19T04:44:39.586Z,12.05
2023-05-19T04:47:09.326Z,12.07
2023-05-19T04:49:36.346Z,12.16
2023-05-19T04:52:02.973Z,12.16
2023-05-19T04:54:29.595Z,12.20
2023-05-19T04:56:56.237Z,12.36
2023-05-19T04:59:22.899Z,12.40
2023-05-19T05:01:49.668Z,12.41
2023-05-19T05:04:16.321Z,12.53
2023-05-19T05:06:42.930Z,12.47
2023-05-19T05:09:09.570Z,12.57
2023-05-19T05:11:36.561Z,12.69
2023-05-19T05:14:03.410Z,12.77
2023-05-19T05:16:30.343Z,12.87
2023-05-19T05:18:57.360Z,13.10
2023-05-19T05:21:24.372Z,13.29
2023-05-19T05:23:51.894Z,13.38
2023-05-19T05:26:19.629Z,13.45
2023-05-19T05:28:46.410Z,13.62
2023-05-19T05:31:13.047Z,13.78
2023-05-19T05:33:39.819Z,13.86
2023-05-19T05:36:06.955Z,13.58
2023-05-19T05:38:33.638Z,13.77
2023-05-19T05:41:00.296Z,13.73
2023-05-19T05:43:26.949Z,13.76
2023-05-19T05:45:53.644Z,13.94
2023-05-19T05:48:20.738Z,14.04
2023-05-19T05:50:48.522Z,14.31
2023-05-19T05:53:18.711Z,14.61
2023-05-19T05:55:46.168Z,14.94
2023-05-19T05:58:12.842Z,14.85
2023-05-19T06:00:39.575Z,14.94
2023-05-19T06:03:06.452Z,15.09
2023-05-19T06:05:33.228Z,15.21
2023-05-19T06:07:59.905Z,15.13
2023-05-19T06:10:26.625Z,14.70
2023-05-19T06:12:53.364Z,15.12
2023-05-19T06:15:21.485Z,15.75
2023-05-19T06:17:48.393Z,16.17
2023-05-19T06:20:15.048Z,16.91
2023-05-19T06:22:41.724Z,17.75
2023-05-19T06:25:08.874Z,18.89
2023-05-19T06:27:35.810Z,19.41
2023-05-19T06:30:02.921Z,19.45
2023-05-19T06:32:29.651Z,20.36
2023-05-19T06:34:56.333Z,21.27
2023-05-19T06:37:23.416Z,21.42
2023-05-19T06:39:53.693Z,21.39
2023-05-19T06:42:20.749Z,21.52
2023-05-19T06:44:49.713Z,21.83
2023-05-19T06:47:17.318Z,22.21
2023-05-19T06:49:47.200Z,22.59
2023-05-19T06:52:13.863Z,23.10
2023-05-19T06:54:40.512Z,23.87
2023-05-19T06:57:07.158Z,24.33
2023-05-19T06:59:33.793Z,24.27
2023-05-19T07:02:00.530Z,24.11
2023-05-19T07:04:27.434Z,24.47
2023-05-19T07:06:54.119Z,24.38
2023-05-19T07:09:20.833Z,24.30
2023-05-19T07:11:47.940Z,23.49
2023-05-19T07:14:14.612Z,23.08
2023-05-19T07:16:41.401Z,23.10
2023-05-19T07:19:08.230Z,23.44
2023-05-19T07:21:34.912Z,24.00
2023-05-19T07:24:01.560Z,23.59
2023-05-19T07:26:29.069Z,22.44
2023-05-19T07:28:55.954Z,23.49
2023-05-19T07:31:22.746Z,23.94
2023-05-19T07:33:49.562Z,24.45
2023-05-19T07:36:18.850Z,24.08
2023-05-19T07:38:48.812Z,23.89
2023-05-19T07:41:15.565Z,24.78
2023-05-19T07:43:42.975Z,23.26
2023-05-19T07:46:09.774Z,23.36
2023-05-19T07:48:36.997Z,23.89
2023-05-19T07:51:03.874Z,24.49
2023-05-19T07:53:30.571Z,25.19
2023-05-19T07:56:02.167Z,25.07
2023-05-19T07:58:31.256Z,25.07
2023-05-19T08:00:58.704Z,25.25
2023-05-19T08:03:26.437Z,25.38
2023-05-19T08:05:53.241Z,25.37
2023-05-19T08:08:19.913Z,26.35
2023-05-19T08:10:46.570Z,26.26
2023-05-19T08:13:13.278Z,25.21
2023-05-19T08:15:39.967Z,25.95
2023-05-19T08:18:06.772Z,24.73
2023-05-19T08:20:33.710Z,23.31
2023-05-19T08:23:00.516Z,22.15
2023-05-19T08:25:27.171Z,21.42
2023-05-19T08:27:53.805Z,21.90
2023-05-19T08:30:20.497Z,21.61
2023-05-19T08:32:47.258Z,20.83
2023-05-19T08:35:16.997Z,20.47
2023-05-19T08:37:43.630Z,20.06
2023-05-19T08:40:16.588Z,20.75
2023-05-19T08:42:43.912Z,21.67
2023-05-19T08:45:10.645Z,20.98
2023-05-19T08:47:37.670Z,20.73
2023-05-19T08:50:06.530Z,21.73
2023-05-19T08:52:56.332Z,23.59
2023-05-19T08:55:32.118Z,24.49
2023-05-19T08:58:00.733Z,22.76
2023-05-19T09:00:28.522Z,21.53
2023-05-19T09:03:01.030Z,21.38
2023-05-19T09:05:33.439Z,21.20
2023-05-19T09:08:00.451Z,20.98
2023-05-19T09:10:28.440Z,21.32
2023-05-19T09:12:56.069Z,20.86
2023-05-19T09:15:27.028Z,20.92
2023-05-19T09:18:18.999Z,20.72
2023-05-19T09:20:46.220Z,20.28
2023-05-19T09:23:14.192Z,20.06
2023-05-19T09:25:48.717Z,20.00
2023-05-19T09:28:15.391Z,20.59
2023-05-19T09:30:42.029Z,21.37
2023-05-19T09:33:08.730Z,21.14
2023-05-19T09:35:35.827Z,20.29
2023-05-19T09:38:02.511Z,20.52
2023-05-19T09:40:29.318Z,20.09
2023-05-19T09:42:58.982Z,20.22
2023-05-19T09:45:26.991Z,20.11
2023-05-19T09:47:53.727Z,19.88
2023-05-19T09:50:20.420Z,19.81
2023-05-19T09:52:47.840Z,19.86
2023-05-19T09:55:14.477Z,20.04
2023-05-19T09:57:41.130Z,20.31
2023-05-19T10:00:09.625Z,19.99
2023-05-19T10:02:36.795Z,20.14
2023-05-19T10:05:03.728Z,20.35
2023-05-19T10:07:30.785Z,20.69
2023-05-19T10:09:58.744Z,20.97
2023-05-19T10:12:26.368Z,21.27
2023-05-19T10:14:54.428Z,20.93
2023-05-19T10:17:21.331Z,21.21
2023-05-19T10:19:54.581Z,21.55
2023-05-19T10:22:21.266Z,21.89
2023-05-19T10:24:48.080Z,21.50
2023-05-19T10:27:15.345Z,21.69
2023-05-19T10:29:45.912Z,21.70
2023-05-19T10:32:16.352Z,21.65
2023-05-19T10:34:55.205Z,21.21
2023-05-19T10:37:37.614Z,21.74
2023-05-19T10:40:11.104Z,21.43
2023-05-19T10:42:45.263Z,21.51
2023-05-19T10:45:20.136Z,21.87
2023-05-19T10:47:46.876Z,22.03
2023-05-19T10:50:15.684Z,21.84
2023-05-19T10:52:42.448Z,22.05
2023-05-19T10:55:10.309Z,21.92
2023-05-19T10:57:36.965Z,22.08
2023-05-19T11:00:06.478Z,21.80
2023-05-19T11:02:43.434Z,21.95
2023-05-19T11:05:15.131Z,22.14
2023-05-19T11:07:42.544Z,22.23
2023-05-19T11:10:09.649Z,22.21
2023-05-19T11:12:44.914Z,22.22
2023-05-19T11:15:13.323Z,22.47
2023-05-19T11:17:40.481Z,22.31
2023-05-19T11:20:08.815Z,22.49
2023-05-19T11:22:35.470Z,22.44
2023-05-19T11:25:02.133Z,22.48
2023-05-19T11:27:33.369Z,22.46
2023-05-19T11:30:01.755Z,22.38
2023-05-19T11:32:31.082Z,22.28
2023-05-19T11:34:58.006Z,22.02
2023-05-19T11:37:24.758Z,21.99
2023-05-19T11:39:54.419Z,21.30
2023-05-19T11:42:21.138Z,21.36
2023-05-19T11:44:48.024Z,19.65
2023-05-19T11:47:15.584Z,20.06
2023-05-19T11:49:47.933Z,19.79
2023-05-19T11:52:15.405Z,19.32
2023-05-19T11:54:42.231Z,19.23
2023-05-19T11:57:12.028Z,18.70
2023-05-19T11:59:38.601Z,19.42
2023-05-19T12:02:24.807Z,20.12
2023-05-19T12:04:52.212Z,20.49
2023-05-19T12:07:22.839Z,19.98
2023-05-19T12:09:52.216Z,19.33
2023-05-19T12:12:20.237Z,19.39
2023-05-19T12:14:47.540Z,19.57
2023-05-19T12:17:16.420Z,19.72
2023-05-19T12:19:43.842Z,19.81
2023-05-19T12:22:10.913Z,19.19
2023-05-19T12:24:38.438Z,18.94
2023-05-19T12:27:20.923Z,18.97
2023-05-19T12:29:53.588Z,18.83
2023-05-19T12:32:27.291Z,19.21
2023-05-19T12:34:56.020Z,19.69
2023-05-19T12:37:22.916Z,19.61
2023-05-19T12:39:50.113Z,19.15
2023-05-19T12:42:17.045Z,19.24
2023-05-19T12:44:48.594Z,19.07
2023-05-19T12:47:16.585Z,18.83
2023-05-19T12:50:06.188Z,18.92
2023-05-19T12:52:34.848Z,18.76
2023-05-19T12:55:03.448Z,18.66
2023-05-19T12:57:30.271Z,18.78
2023-05-19T13:00:19.973Z,19.44
2023-05-19T13:03:02.527Z,19.02
2023-05-19T13:05:31.174Z,18.75
2023-05-19T13:08:02.630Z,18.92
2023-05-19T13:10:29.741Z,18.89
2023-05-19T13:12:57.669Z,18.98
2023-05-19T13:15:25.433Z,19.01
2023-05-19T13:17:53.141Z,18.75
2023-05-19T13:20:21.695Z,18.79
2023-05-19T13:22:48.722Z,18.78
2023-05-19T13:25:15.448Z,18.78
2023-05-19T13:27:42.292Z,18.88
2023-05-19T13:30:09.287Z,18.79
2023-05-19T13:32:36.028Z,18.81
2023-05-19T13:35:02.738Z,18.90
2023-05-19T13:37:29.523Z,19.05
2023-05-19T13:39:57.565Z,19.32
2023-05-19T13:42:24.410Z,19.73
2023-05-19T13:44:55.003Z,19.68
2023-05-19T13:47:23.453Z,20.27
2023-05-19T13:49:50.395Z,20.08
2023-05-19T13:52:17.516Z,19.49
2023-05-19T13:54:48.636Z,19.41
2023-05-19T13:57:16.344Z,19.74
2023-05-19T14:00:00.152Z,19.30
2023-05-19T14:02:28.373Z,18.64
2023-05-19T14:04:55.189Z,19.08
2023-05-19T14:07:21.849Z,19.05
2023-05-19T14:09:48.489Z,19.43
2023-05-19T14:12:15.282Z,19.44
2023-05-19T14:14:41.930Z,19.62
2023-05-19T14:17:08.674Z,20.27
2023-05-19T14:19:35.505Z,19.80
2023-05-19T14:22:02.153Z,19.10
2023-05-19T14:24:29.000Z,19.17
2023-05-19T14:26:55.630Z,19.15
2023-05-19T14:29:22.374Z,18.63
2023-05-19T14:31:49.130Z,18.39
2023-05-19T14:34:15.764Z,19.02
2023-05-19T14:36:42.388Z,18.87
2023-05-19T14:39:09.078Z,18.64
2023-05-19T14:41:35.726Z,18.22
2023-05-19T14:44:02.379Z,18.00
2023-05-19T14:46:29.073Z,17.61
2023-05-19T14:48:55.757Z,17.53
2023-05-19T14:51:22.514Z,17.30
2023-05-19T14:53:49.153Z,17.48
2023-05-19T14:56:15.959Z,17.26
2023-05-19T14:58:42.620Z,17.34
2023-05-19T15:01:09.263Z,17.31
2023-05-19T15:03:36.064Z,16.93
2023-05-19T15:06:02.719Z,16.66
2023-05-19T15:08:29.359Z,16.82
2023-05-19T15:10:56.001Z,16.89
2023-05-19T15:13:22.686Z,16.90
2023-05-19T15:15:58.919Z,17.19
2023-05-19T15:18:31.727Z,17.23
2023-05-19T15:20:58.358Z,17.00
2023-05-19T15:23:25.002Z,16.94
2023-05-19T15:25:51.711Z,17.17
2023-05-19T15:28:19.466Z,17.24
2023-05-19T15:30:46.220Z,17.11
2023-05-19T15:33:12.958Z,17.21
2023-05-19T15:35:39.632Z,16.85
2023-05-19T15:38:06.373Z,16.81
2023-05-19T15:40:33.920Z,17.07
2023-05-19T15:43:01.163Z,17.09
2023-05-19T15:45:28.025Z,17.21
2023-05-19T15:47:54.757Z,17.50
2023-05-19T15:50:21.412Z,17.34
2023-05-19T15:52:48.173Z,16.96
2023-05-19T15:55:14.873Z,16.93
2023-05-19T15:57:41.503Z,16.82
2023-05-19T16:00:08.705Z,17.11
2023-05-19T16:02:35.461Z,16.53
2023-05-19T16:05:02.220Z,16.66
2023-05-19T16:07:28.886Z,16.50
2023-05-19T16:09:55.598Z,16.47
2023-05-19T16:12:22.231Z,16.24
2023-05-19T16:14:48.876Z,16.35
2023-05-19T16:17:15.541Z,16.58
2023-05-19T16:19:42.230Z,16.79
2023-05-19T16:22:08.877Z,16.78
2023-05-19T16:24:35.584Z,16.49
2023-05-19T16:27:05.228Z,16.18
2023-05-19T16:29:31.854Z,16.35
2023-05-19T16:32:04.193Z,16.40
2023-05-19T16:34:30.994Z,16.22
2023-05-19T16:36:57.632Z,16.16
2023-05-19T16:39:24.513Z,16.04
2023-05-19T16:41:53.754Z,16.22
2023-05-19T16:44:20.446Z,16.09
2023-05-19T16:46:47.165Z,15.83
2023-05-19T16:49:13.813Z,15.74
2023-05-19T16:51:40.444Z,15.95
2023-05-19T16:54:07.277Z,16.12
2023-05-19T16:56:36.591Z,16.10
2023-05-19T16:59:03.538Z,16.28
2023-05-19T17:01:34.320Z,16.10
2023-05-19T17:04:01.019Z,16.19
2023-05-19T17:06:27.766Z,16.04
2023-05-19T17:08:54.525Z,16.07
2023-05-19T17:11:21.221Z,15.88
2023-05-19T17:13:47.858Z,15.68
2023-05-19T17:16:14.536Z,15.88
2023-05-19T17:18:41.409Z,15.65
2023-05-19T17:21:08.136Z,15.83
2023-05-19T17:23:34.836Z,15.76
2023-05-19T17:26:01.451Z,15.45
2023-05-19T17:28:28.104Z,15.54
2023-05-19T17:30:55.114Z,15.47
2023-05-19T17:33:21.869Z,15.96
2023-05-19T17:35:48.571Z,15.90
2023-05-19T17:38:15.220Z,16.25
2023-05-19T17:40:42.144Z,16.19
2023-05-19T17:43:09.040Z,16.19
2023-05-19T17:45:35.656Z,15.93
2023-05-19T17:48:02.434Z,15.56
2023-05-19T17:50:29.184Z,15.24
2023-05-19T17:52:56.071Z,15.15
2023-05-19T17:55:23.148Z,15.14
2023-05-19T17:57:49.999Z,15.12
2023-05-19T18:00:16.942Z,15.20
2023-05-19T18:02:44.134Z,15.61
2023-05-19T18:05:11.397Z,15.75
2023-05-19T18:07:39.742Z,15.63
2023-05-19T18:10:07.209Z,15.65
2023-05-19T18:12:33.832Z,15.70
2023-05-19T18:15:00.499Z,15.51
2023-05-19T18:17:27.354Z,15.60
2023-05-19T18:19:54.148Z,15.33
2023-05-19T18:22:20.821Z,15.22
2023-05-19T18:24:47.475Z,15.34
2023-05-19T18:27:14.122Z,15.34
2023-05-19T18:29:40.739Z,15.18
2023-05-19T18:32:07.824Z,14.83
2023-05-19T18:34:34.549Z,14.85
2023-05-19T18:37:01.156Z,15.13
2023-05-19T18:39:29.321Z,15.00
2023-05-19T18:41:56.139Z,14.72
2023-05-19T18:44:23.049Z,14.86
2023-05-19T18:46:49.733Z,14.78
2023-05-19T18:49:16.393Z,14.69
2023-05-19T18:51:43.118Z,14.56
2023-05-19T18:54:09.780Z,14.39
2023-05-19T18:56:36.532Z,14.35
2023-05-19T18:59:03.213Z,14.28
2023-05-19T19:01:29.930Z,14.51
2023-05-19T19:03:56.693Z,14.44
2023-05-19T19:06:23.422Z,14.38
2023-05-19T19:08:50.192Z,14.29
2023-05-19T19:11:16.838Z,14.13
2023-05-19T19:13:43.487Z,14.26
2023-05-19T19:16:10.337Z,14.06
2023-05-19T19:18:37.045Z,14.12
2023-05-19T19:21:04.427Z,13.93
2023-05-19T19:23:31.636Z,13.96
2023-05-19T19:25:58.331Z,13.93
2023-05-19T19:28:24.978Z,13.94
2023-05-19T19:30:54.188Z,13.80
2023-05-19T19:33:23.717Z,13.86
2023-05-19T19:35:50.345Z,13.89
2023-05-19T19:38:16.976Z,14.05
2023-05-19T19:40:43.617Z,14.13
2023-05-19T19:43:10.275Z,14.03
2023-05-19T19:45:36.962Z,14.03
2023-05-19T19:48:03.717Z,13.90
2023-05-19T19:50:30.415Z,13.82
2023-05-19T19:52:57.066Z,13.86
2023-05-19T19:55:23.721Z,13.69
2023-05-19T19:57:50.423Z,13.62
2023-05-19T20:00:17.728Z,13.65
2023-05-19T20:03:02.814Z,13.47
2023-05-19T20:05:30.858Z,13.37
2023-05-19T20:07:57.545Z,13.35
2023-05-19T20:10:24.191Z,13.20
2023-05-19T20:12:50.980Z,13.19
2023-05-19T20:15:17.750Z,13.17
2023-05-19T20:17:45.158Z,13.08
2023-05-19T20:20:12.367Z,13.11
2023-05-19T20:22:39.232Z,13.18
2023-05-19T20:25:06.439Z,13.16
2023-05-19T20:27:33.138Z,13.28
2023-05-19T20:29:59.793Z,13.13
2023-05-19T20:32:26.578Z,13.21
2023-05-19T20:34:53.275Z,13.32
2023-05-19T20:37:19.905Z,13.35
2023-05-19T20:39:46.583Z,13.29
2023-05-19T20:42:13.275Z,13.28
2023-05-19T20:44:40.000Z,13.12
2023-05-19T20:47:06.643Z,13.19
2023-05-19T20:49:33.474Z,13.15
2023-05-19T20:52:00.170Z,13.28
2023-05-19T20:54:29.421Z,13.25
2023-05-19T20:56:56.177Z,13.22
2023-05-19T20:59:22.845Z,13.18
2023-05-19T21:01:49.541Z,13.35
2023-05-19T21:04:16.334Z,13.19
2023-05-19T21:06:43.002Z,13.03
2023-05-19T21:09:09.635Z,12.92
2023-05-19T21:11:36.283Z,12.90
2023-05-19T21:14:02.952Z,13.00
2023-05-19T21:16:29.810Z,12.90
2023-05-19T21:18:57.975Z,13.01
2023-05-19T21:21:24.870Z,13.05
2023-05-19T21:23:51.709Z,12.98
2023-05-19T21:26:18.467Z,12.91
2023-05-19T21:28:45.104Z,12.84
2023-05-19T21:31:11.883Z,12.95
2023-05-19T21:33:38.581Z,12.91
2023-05-19T21:36:05.395Z,12.86
2023-05-19T21:38:32.033Z,12.92
2023-05-19T21:40:58.743Z,12.92
2023-05-19T21:43:25.401Z,12.74
2023-05-19T21:45:52.098Z,12.68
2023-05-19T21:48:18.817Z,12.60
2023-05-19T21:50:45.534Z,12.60
2023-05-19T21:53:12.199Z,12.55
2023-05-19T21:55:38.836Z,12.53
2023-05-19T21:58:05.486Z,12.54
2023-05-19T22:00:32.403Z,12.52
2023-05-19T22:02:59.475Z,12.48
2023-05-19T22:05:26.172Z,12.49
2023-05-19T22:07:52.796Z,12.43
2023-05-19T22:10:19.546Z,12.45
2023-05-19T22:12:46.171Z,12.46
2023-05-19T22:15:12.874Z,12.43
2023-05-19T22:17:39.579Z,12.39
2023-05-19T22:20:06.916Z,12.44
2023-05-19T22:22:34.135Z,12.47
2023-05-19T22:25:02.373Z,12.57
2023-05-19T22:27:29.174Z,12.36
2023-05-19T22:29:55.867Z,12.37
2023-05-19T22:32:22.486Z,12.30
2023-05-19T22:34:49.186Z,12.24
2023-05-19T22:37:15.876Z,12.17
2023-05-19T22:39:43.181Z,12.26
2023-05-19T22:42:09.920Z,12.35
2023-05-19T22:44:36.587Z,12.36
2023-05-19T22:47:03.278Z,12.28
2023-05-19T22:49:29.960Z,12.21
2023-05-19T22:51:56.644Z,12.19
2023-05-19T22:54:25.708Z,12.15
2023-05-19T22:56:52.320Z,12.19
2023-05-19T22:59:18.946Z,12.22
2023-05-19T23:01:45.720Z,12.23
2023-05-19T23:04:12.400Z,12.25
2023-05-19T23:06:39.244Z,12.31
2023-05-19T23:09:05.871Z,12.27
2023-05-19T23:11:32.532Z,12.14
2023-05-19T23:13:59.269Z,12.21
2023-05-19T23:16:25.965Z,12.15
2023-05-19T23:18:52.769Z,12.08
2023-05-19T23:21:19.442Z,12.00
2023-05-19T23:23:46.302Z,12.04
2023-05-19T23:26:13.021Z,12.07
2023-05-19T23:28:41.721Z,12.07
2023-05-19T23:31:08.634Z,12.12
2023-05-19T23:33:35.301Z,12.18
2023-05-19T23:36:06.394Z,12.22
2023-05-19T23:38:33.225Z,12.08
2023-05-19T23:40:59.921Z,12.14
2023-05-19T23:43:26.598Z,12.14
2023-05-19T23:45:53.246Z,12.04
2023-05-19T23:48:19.872Z,12.14
2023-05-19T23:50:46.506Z,12.10
2023-05-19T23:53:13.187Z,12.15
2023-05-19T23:55:39.836Z,12.18
2023-05-19T23:58:06.672Z,12.07
